createdAt,value
2023-04-16T00:01:27.562Z,95240.81
2023-04-16T00:03:54.825Z,95234.78
2023-04-16T00:06:23.364Z,95241.16
2023-04-16T00:08:51.571Z,95238.56
2023-04-16T00:11:18.222Z,95240.84
2023-04-16T00:13:44.721Z,95227.06
2023-04-16T00:16:11.284Z,95220.41
2023-04-16T00:18:37.912Z,95233.91
2023-04-16T00:21:04.582Z,95234.50
2023-04-16T00:23:31.231Z,95240.16
2023-04-16T00:26:00.067Z,95235.00
2023-04-16T00:28:27.651Z,95231.91
2023-04-16T00:30:55.118Z,95242.50
2023-04-16T00:33:21.856Z,95242.88
2023-04-16T00:35:48.863Z,95241.66
2023-04-16T00:38:15.877Z,95243.34
2023-04-16T00:40:42.553Z,95242.16
2023-04-16T00:43:09.265Z,95239.19
2023-04-16T00:45:36.624Z,95237.63
2023-04-16T00:48:04.200Z,95238.22
2023-04-16T00:50:31.044Z,95229.72
2023-04-16T00:52:58.251Z,95235.16
2023-04-16T00:55:24.945Z,95243.34
2023-04-16T00:57:51.606Z,95233.22
2023-04-16T01:00:19.260Z,95230.97
2023-04-16T01:02:46.092Z,95238.47
2023-04-16T01:05:13.510Z,95239.78
2023-04-16T01:07:40.212Z,95225.19
2023-04-16T01:10:12.188Z,95227.84
2023-04-16T01:12:38.826Z,95245.56
2023-04-16T01:15:05.996Z,95223.88
2023-04-16T01:17:32.655Z,95235.75
2023-04-16T01:20:02.034Z,95243.34
2023-04-16T01:22:29.325Z,95187.50
2023-04-16T01:24:55.922Z,95235.81
2023-04-16T01:27:22.525Z,95226.81
2023-04-16T01:29:49.312Z,95235.88
2023-04-16T01:32:15.959Z,95233.59
2023-04-16T01:34:42.617Z,95223.81
2023-04-16T01:37:09.242Z,95232.41
2023-04-16T01:39:35.996Z,95234.69
2023-04-16T01:42:02.597Z,95243.34
2023-04-16T01:44:29.280Z,95250.06
2023-04-16T01:46:56.010Z,95244.84
2023-04-16T01:49:23.528Z,95229.88
2023-04-16T01:51:50.145Z,95241.88
2023-04-16T01:54:16.766Z,95242.63
2023-04-16T01:56:43.424Z,95247.88
2023-04-16T01:59:10.116Z,95250.91
2023-04-16T02:01:37.013Z,95257.28
2023-04-16T02:04:04.099Z,95264.84
2023-04-16T02:06:31.648Z,95271.09
2023-04-16T02:08:58.325Z,95273.38
2023-04-16T02:11:24.859Z,95272.09
2023-04-16T02:13:51.454Z,95268.09
2023-04-16T02:16:18.075Z,95267.50
2023-04-16T02:18:44.680Z,95268.16
2023-04-16T02:21:11.279Z,95267.34
2023-04-16T02:23:41.069Z,95262.13
2023-04-16T02:26:07.823Z,95269.63
2023-04-16T02:28:34.643Z,95270.38
2023-04-16T02:31:01.240Z,95267.97
2023-04-16T02:33:27.920Z,95275.59
2023-04-16T02:35:54.549Z,95271.63
2023-04-16T02:38:21.191Z,95273.03
2023-04-16T02:40:47.804Z,95271.78
2023-04-16T02:43:14.354Z,95273.75
2023-04-16T02:45:41.147Z,95282.66
2023-04-16T02:48:09.714Z,95268.78
2023-04-16T02:50:36.534Z,95276.94
2023-04-16T02:53:04.325Z,95285.22
2023-04-16T02:55:31.076Z,95279.69
2023-04-16T02:57:57.710Z,95281.72
2023-04-16T03:00:24.242Z,95283.19
2023-04-16T03:02:50.979Z,95276.97
2023-04-16T03:05:17.855Z,95277.38
2023-04-16T03:07:44.583Z,95285.66
2023-04-16T03:10:12.122Z,95283.75
2023-04-16T03:12:39.225Z,95296.63
2023-04-16T03:15:06.297Z,95293.56
2023-04-16T03:17:32.913Z,95290.50
2023-04-16T03:19:59.482Z,95283.78
2023-04-16T03:22:26.185Z,95287.59
2023-04-16T03:24:52.760Z,95286.69
2023-04-16T03:27:19.258Z,95290.19
2023-04-16T03:29:45.960Z,95289.38
2023-04-16T03:32:12.841Z,95285.97
2023-04-16T03:34:39.381Z,95286.66
2023-04-16T03:37:06.320Z,95287.88
2023-04-16T03:39:34.570Z,95288.94
2023-04-16T03:42:02.335Z,95286.38
2023-04-16T03:44:29.483Z,95281.81
2023-04-16T03:46:56.135Z,95286.75
2023-04-16T03:49:22.835Z,95292.00
2023-04-16T03:51:49.420Z,95290.38
2023-04-16T03:54:16.130Z,95288.88
2023-04-16T03:56:43.095Z,95280.19
2023-04-16T03:59:10.133Z,95288.94
2023-04-16T04:01:36.786Z,95289.66
2023-04-16T04:04:03.559Z,95288.59
2023-04-16T04:06:30.928Z,95282.28
2023-04-16T04:08:57.492Z,95284.66
2023-04-16T04:11:24.158Z,95276.88
2023-04-16T04:13:50.733Z,95285.56
2023-04-16T04:16:17.302Z,95279.09
2023-04-16T04:18:44.536Z,95282.56
2023-04-16T04:21:11.376Z,95285.19
2023-04-16T04:23:38.025Z,95286.97
2023-04-16T04:26:05.707Z,95280.13
2023-04-16T04:28:33.215Z,95293.69
2023-04-16T04:31:00.159Z,95289.97
2023-04-16T04:33:27.244Z,95282.22
2023-04-16T04:35:54.810Z,95293.41
2023-04-16T04:38:25.251Z,95298.75
2023-04-16T04:40:52.877Z,95292.81
2023-04-16T04:43:20.577Z,95296.13
2023-04-16T04:45:47.412Z,95298.00
2023-04-16T04:48:14.090Z,95298.72
2023-04-16T04:50:41.234Z,95300.69
2023-04-16T04:53:10.655Z,95297.00
2023-04-16T04:55:38.202Z,95297.28
2023-04-16T04:58:07.804Z,95311.53
2023-04-16T05:00:35.486Z,95305.34
2023-04-16T05:03:03.576Z,95310.31
2023-04-16T05:05:30.551Z,95292.28
2023-04-16T05:07:57.062Z,95300.44
2023-04-16T05:10:23.674Z,95304.16
2023-04-16T05:12:50.207Z,95303.06
2023-04-16T05:15:17.082Z,95303.13
2023-04-16T05:17:43.619Z,95309.34
2023-04-16T05:20:10.353Z,95293.69
2023-04-16T05:22:36.960Z,95299.47
2023-04-16T05:25:03.817Z,95316.00
2023-04-16T05:27:30.417Z,95319.88
2023-04-16T05:29:56.929Z,95318.72
2023-04-16T05:32:26.443Z,95318.88
2023-04-16T05:34:52.977Z,95326.50
2023-04-16T05:37:19.740Z,95327.88
2023-04-16T05:39:46.286Z,95335.88
2023-04-16T05:42:12.831Z,95330.72
2023-04-16T05:44:40.793Z,95335.44
2023-04-16T05:47:09.342Z,95327.94
2023-04-16T05:49:39.172Z,95325.06
2023-04-16T05:52:06.238Z,95340.00
2023-04-16T05:54:32.813Z,95334.84
2023-04-16T05:57:01.873Z,95339.44
2023-04-16T05:59:29.362Z,95348.97
2023-04-16T06:01:56.041Z,95350.41
2023-04-16T06:04:22.667Z,95349.88
2023-04-16T06:06:49.273Z,95345.38
2023-04-16T06:09:16.165Z,95348.16
2023-04-16T06:11:42.707Z,95352.97
2023-04-16T06:14:09.283Z,95352.91
2023-04-16T06:16:35.917Z,95339.59
2023-04-16T06:19:02.578Z,95345.19
2023-04-16T06:21:29.568Z,95349.63
2023-04-16T06:23:56.269Z,95352.44
2023-04-16T06:26:22.978Z,95356.13
2023-04-16T06:28:50.360Z,95358.09
2023-04-16T06:31:17.012Z,95361.44
2023-04-16T06:33:43.698Z,95354.53
2023-04-16T06:36:11.510Z,95355.38
2023-04-16T06:38:38.242Z,95354.63
2023-04-16T06:41:04.873Z,95353.59
2023-04-16T06:43:33.541Z,95354.25
2023-04-16T06:46:00.197Z,95364.38
2023-04-16T06:48:27.369Z,95367.31
2023-04-16T06:50:55.054Z,95367.81
2023-04-16T06:53:21.730Z,95369.16
2023-04-16T06:55:48.221Z,95373.47
2023-04-16T06:58:14.825Z,95377.94
2023-04-16T07:00:41.393Z,95375.81
2023-04-16T07:03:08.119Z,95371.59
2023-04-16T07:05:34.722Z,95377.22
2023-04-16T07:08:01.351Z,95378.91
2023-04-16T07:10:27.978Z,95372.06
2023-04-16T07:12:54.926Z,95380.97
2023-04-16T07:15:21.787Z,95374.34
2023-04-16T07:17:48.436Z,95379.72
2023-04-16T07:20:15.063Z,95380.97
2023-04-16T07:22:41.614Z,95373.47
2023-04-16T07:25:08.624Z,95385.66
2023-04-16T07:27:35.330Z,95391.72
2023-04-16T07:30:01.967Z,95388.75
2023-04-16T07:32:28.580Z,95377.09
2023-04-16T07:34:55.961Z,95380.00
2023-04-16T07:37:22.850Z,95384.19
2023-04-16T07:39:49.519Z,95389.00
2023-04-16T07:42:16.091Z,95379.31
2023-04-16T07:44:42.928Z,95387.47
2023-04-16T07:47:09.689Z,95380.69
2023-04-16T07:49:36.543Z,95396.50
2023-04-16T07:52:03.130Z,95392.94
2023-04-16T07:54:29.740Z,95392.47
2023-04-16T07:56:56.389Z,95395.78
2023-04-16T07:59:24.286Z,95408.44
2023-04-16T08:01:53.472Z,95409.25
2023-04-16T08:04:25.009Z,95415.03
2023-04-16T08:06:52.396Z,95416.84
2023-04-16T08:09:23.710Z,95411.25
2023-04-16T08:11:50.905Z,95408.78
2023-04-16T08:14:17.734Z,95412.94
2023-04-16T08:16:44.553Z,95411.09
2023-04-16T08:19:11.296Z,95423.00
2023-04-16T08:21:38.057Z,95426.00
2023-04-16T08:24:04.669Z,95425.38
2023-04-16T08:26:31.228Z,95426.97
2023-04-16T08:28:57.782Z,95420.13
2023-04-16T08:31:24.472Z,95432.28
2023-04-16T08:33:51.090Z,95434.88
2023-04-16T08:36:17.585Z,95434.50
2023-04-16T08:38:44.321Z,95423.91
2023-04-16T08:41:13.070Z,95444.72
2023-04-16T08:43:44.430Z,95434.53
2023-04-16T08:46:12.430Z,95436.81
2023-04-16T08:48:42.187Z,95441.69
2023-04-16T08:51:10.689Z,95391.97
2023-04-16T08:53:47.506Z,95442.06
2023-04-16T08:56:15.824Z,95433.63
2023-04-16T08:58:42.441Z,95440.56
2023-04-16T09:01:09.879Z,95441.31
2023-04-16T09:03:36.963Z,95438.97
2023-04-16T09:06:04.661Z,95436.75
2023-04-16T09:08:32.284Z,95439.81
2023-04-16T09:10:59.659Z,95448.00
2023-04-16T09:13:26.887Z,95441.94
2023-04-16T09:15:54.678Z,95448.84
2023-04-16T09:18:21.486Z,95451.84
2023-04-16T09:20:49.495Z,95456.72
2023-04-16T09:23:16.139Z,95448.13
2023-04-16T09:25:42.697Z,95445.09
2023-04-16T09:28:11.016Z,95449.22
2023-04-16T09:30:37.884Z,95454.84
2023-04-16T09:33:23.860Z,95448.13
2023-04-16T09:35:53.002Z,95454.16
2023-04-16T09:38:21.127Z,95459.34
2023-04-16T09:40:47.892Z,95456.97
2023-04-16T09:43:16.521Z,95456.91
2023-04-16T09:45:54.728Z,95462.63
2023-04-16T09:48:29.469Z,95452.09
2023-04-16T09:50:56.410Z,95462.28
2023-04-16T09:53:31.390Z,95465.44
2023-04-16T09:55:59.246Z,95449.59
2023-04-16T09:58:26.752Z,95468.41
2023-04-16T10:01:01.779Z,95463.97
2023-04-16T10:03:32.709Z,95470.38
2023-04-16T10:06:20.810Z,95473.78
2023-04-16T10:08:56.858Z,95474.50
2023-04-16T10:11:24.127Z,95466.22
2023-04-16T10:13:51.083Z,95463.22
2023-04-16T10:16:18.131Z,95469.97
2023-04-16T10:18:46.534Z,95477.53
2023-04-16T10:21:13.208Z,95460.19
2023-04-16T10:23:40.642Z,95471.47
2023-04-16T10:26:07.523Z,95474.47
2023-04-16T10:28:35.650Z,95479.41
2023-04-16T10:31:09.745Z,95475.28
2023-04-16T10:33:39.966Z,95479.03
2023-04-16T10:36:13.563Z,95482.81
2023-04-16T10:38:48.292Z,95476.75
2023-04-16T10:41:15.025Z,95484.31
2023-04-16T10:43:49.338Z,95488.78
2023-04-16T10:46:34.803Z,95483.44
2023-04-16T10:49:03.469Z,95483.56
2023-04-16T10:51:33.952Z,95488.84
2023-04-16T10:54:10.103Z,95481.31
2023-04-16T10:56:37.257Z,95481.31
2023-04-16T10:59:10.568Z,95478.25
2023-04-16T11:01:42.005Z,95482.81
2023-04-16T11:04:39.125Z,95488.84
2023-04-16T11:07:14.494Z,95483.53
2023-04-16T11:09:46.574Z,95482.06
2023-04-16T11:12:20.294Z,95479.03
2023-04-16T11:14:55.194Z,95481.28
2023-04-16T11:17:22.204Z,95488.84
2023-04-16T11:19:49.278Z,95481.28
2023-04-16T11:22:17.657Z,95486.59
2023-04-16T11:24:45.684Z,95483.56
2023-04-16T11:27:16.196Z,95486.56
2023-04-16T11:29:44.087Z,95491.13
2023-04-16T11:32:20.683Z,95490.72
2023-04-16T11:34:47.290Z,95495.63
2023-04-16T11:37:14.100Z,95490.75
2023-04-16T11:39:52.824Z,95483.53
2023-04-16T11:42:22.746Z,95487.31
2023-04-16T11:44:57.822Z,95489.59
2023-04-16T11:47:24.965Z,95485.06
2023-04-16T11:49:51.693Z,95492.53
2023-04-16T11:52:27.631Z,95490.09
2023-04-16T11:54:54.530Z,95490.53
2023-04-16T11:57:31.910Z,95487.38
2023-04-16T12:00:02.513Z,95487.72
2023-04-16T12:02:41.074Z,95499.34
2023-04-16T12:05:28.680Z,95501.63
2023-04-16T12:07:55.588Z,95497.81
2023-04-16T12:10:22.383Z,95500.06
2023-04-16T12:12:49.215Z,95500.81
2023-04-16T12:15:15.837Z,95501.53
2023-04-16T12:17:42.575Z,95498.56
2023-04-16T12:20:17.762Z,95502.31
2023-04-16T12:22:49.501Z,95499.34
2023-04-16T12:25:17.934Z,95499.34
2023-04-16T12:27:56.045Z,95502.38
2023-04-16T12:30:24.772Z,95513.75
2023-04-16T12:32:55.496Z,95508.03
2023-04-16T12:35:34.126Z,95509.97
2023-04-16T12:38:00.998Z,95509.19
2023-04-16T12:40:27.843Z,95499.41
2023-04-16T12:42:54.914Z,95494.88
2023-04-16T12:45:22.958Z,95506.19
2023-04-16T12:47:50.612Z,95505.34
2023-04-16T12:50:17.580Z,95506.91
2023-04-16T12:52:44.524Z,95505.44
2023-04-16T12:55:13.804Z,95501.94
2023-04-16T12:57:41.073Z,95509.09
2023-04-16T13:00:08.548Z,95507.66
2023-04-16T13:02:35.325Z,95506.50
2023-04-16T13:05:02.051Z,95506.97
2023-04-16T13:07:29.088Z,95506.16
2023-04-16T13:09:55.741Z,95504.97
2023-04-16T13:12:22.365Z,95505.75
2023-04-16T13:14:48.900Z,95507.34
2023-04-16T13:17:15.543Z,95506.91
2023-04-16T13:19:42.085Z,95498.56
2023-04-16T13:22:09.483Z,95498.13
2023-04-16T13:24:36.205Z,95506.06
2023-04-16T13:27:03.116Z,95503.38
2023-04-16T13:29:30.001Z,95506.72
2023-04-16T13:31:57.567Z,95500.69
2023-04-16T13:34:24.222Z,95502.91
2023-04-16T13:36:50.811Z,95510.31
2023-04-16T13:39:17.625Z,95494.78
2023-04-16T13:41:44.271Z,95498.81
2023-04-16T13:44:10.990Z,95502.16
2023-04-16T13:46:37.582Z,95502.19
2023-04-16T13:49:04.177Z,95504.34
2023-04-16T13:51:30.779Z,95493.97
2023-04-16T13:53:57.280Z,95504.81
2023-04-16T13:56:23.988Z,95500.03
2023-04-16T13:58:50.741Z,95499.84
2023-04-16T14:01:17.490Z,95489.28
2023-04-16T14:03:44.525Z,95494.91
2023-04-16T14:06:11.188Z,95495.44
2023-04-16T14:08:38.351Z,95494.78
2023-04-16T14:11:06.476Z,95491.72
2023-04-16T14:13:33.285Z,95499.78
2023-04-16T14:15:59.931Z,95496.47
2023-04-16T14:18:26.595Z,95501.78
2023-04-16T14:20:53.175Z,95505.34
2023-04-16T14:23:19.840Z,95508.13
2023-04-16T14:25:46.442Z,95513.63
2023-04-16T14:28:15.482Z,95515.09
2023-04-16T14:30:42.384Z,95512.53
2023-04-16T14:33:09.292Z,95503.88
2023-04-16T14:35:36.124Z,95513.25
2023-04-16T14:38:02.982Z,95511.63
2023-04-16T14:40:30.039Z,95503.91
2023-04-16T14:42:56.728Z,95509.97
2023-04-16T14:45:29.033Z,95512.25
2023-04-16T14:47:56.021Z,95514.50
2023-04-16T14:50:22.646Z,95516.03
2023-04-16T14:52:49.234Z,95522.78
2023-04-16T14:55:15.839Z,95521.31
2023-04-16T14:57:42.489Z,95509.25
2023-04-16T15:00:13.490Z,95518.28
2023-04-16T15:02:40.519Z,95504.69
2023-04-16T15:05:09.850Z,95521.25
2023-04-16T15:07:37.036Z,95528.75
2023-04-16T15:10:03.950Z,95532.59
2023-04-16T15:12:30.528Z,95520.91
2023-04-16T15:14:57.209Z,95527.31
2023-04-16T15:17:23.992Z,95533.28
2023-04-16T15:19:52.187Z,95529.56
2023-04-16T15:22:18.886Z,95534.47
2023-04-16T15:24:45.942Z,95535.59
2023-04-16T15:27:13.984Z,95539.75
2023-04-16T15:29:40.581Z,95540.84
2023-04-16T15:32:07.223Z,95539.28
2023-04-16T15:34:33.827Z,95537.72
2023-04-16T15:37:00.453Z,95532.09
2023-04-16T15:39:27.100Z,95537.09
2023-04-16T15:42:01.251Z,95536.28
2023-04-16T15:44:31.073Z,95540.88
2023-04-16T15:46:57.733Z,95540.91
2023-04-16T15:49:24.824Z,95528.84
2023-04-16T15:51:52.033Z,95537.13
2023-04-16T15:54:18.873Z,95542.44
2023-04-16T15:56:46.634Z,95538.66
2023-04-16T15:59:13.701Z,95534.88
2023-04-16T16:01:40.917Z,95539.41
2023-04-16T16:04:08.296Z,95542.44
2023-04-16T16:06:35.828Z,95537.16
2023-04-16T16:09:02.422Z,95534.13
2023-04-16T16:11:29.045Z,95494.91
2023-04-16T16:13:55.595Z,95540.91
2023-04-16T16:16:22.164Z,95538.66
2023-04-16T16:18:48.929Z,95552.22
2023-04-16T16:21:15.515Z,95552.16
2023-04-16T16:23:42.067Z,95549.53
2023-04-16T16:26:09.398Z,95552.59
2023-04-16T16:28:39.173Z,95548.44
2023-04-16T16:31:06.951Z,95552.19
2023-04-16T16:33:33.582Z,95556.75
2023-04-16T16:36:00.314Z,95551.50
2023-04-16T16:38:27.244Z,95552.97
2023-04-16T16:40:53.864Z,95540.91
2023-04-16T16:43:20.768Z,95545.44
2023-04-16T16:45:47.386Z,95543.16
2023-04-16T16:48:14.053Z,95541.66
2023-04-16T16:50:41.694Z,95543.56
2023-04-16T16:53:08.269Z,95549.22
2023-04-16T16:55:35.688Z,95556.75
2023-04-16T16:58:03.036Z,95545.81
2023-04-16T17:00:29.594Z,95560.50
2023-04-16T17:02:56.545Z,95556.78
2023-04-16T17:05:23.288Z,95567.31
2023-04-16T17:07:49.844Z,95558.22
2023-04-16T17:10:20.840Z,95561.56
2023-04-16T17:12:49.063Z,95564.97
2023-04-16T17:15:17.558Z,95561.13
2023-04-16T17:17:45.944Z,95570.94
2023-04-16T17:20:12.665Z,95574.94
2023-04-16T17:22:40.429Z,95558.06
2023-04-16T17:25:10.585Z,95556.63
2023-04-16T17:27:37.243Z,95556.75
2023-04-16T17:30:05.542Z,95555.25
2023-04-16T17:32:32.952Z,95567.28
2023-04-16T17:35:01.208Z,95552.53
2023-04-16T17:37:27.900Z,95555.84
2023-04-16T17:39:54.521Z,95562.53
2023-04-16T17:42:21.153Z,95552.66
2023-04-16T17:44:47.880Z,95562.97
2023-04-16T17:47:14.449Z,95567.53
2023-04-16T17:49:41.238Z,95570.03
2023-04-16T17:52:07.869Z,95568.94
2023-04-16T17:54:34.476Z,95568.53
2023-04-16T17:57:01.918Z,95571.19
2023-04-16T17:59:28.557Z,95574.44
2023-04-16T18:01:56.176Z,95564.53
2023-04-16T18:04:22.946Z,95558.69
2023-04-16T18:06:49.657Z,95569.06
2023-04-16T18:09:16.275Z,95561.00
2023-04-16T18:11:42.831Z,95570.50
2023-04-16T18:14:11.587Z,95571.50
2023-04-16T18:16:38.653Z,95574.53
2023-04-16T18:19:05.570Z,95574.38
2023-04-16T18:21:32.157Z,95590.19
2023-04-16T18:24:00.886Z,95567.88
2023-04-16T18:26:29.878Z,95580.72
2023-04-16T18:28:56.969Z,95580.50
2023-04-16T18:31:23.649Z,95584.16
2023-04-16T18:33:57.549Z,95593.28
2023-04-16T18:36:26.801Z,95582.72
2023-04-16T18:39:01.669Z,95588.34
2023-04-16T18:41:30.069Z,95588.66
2023-04-16T18:43:57.114Z,95596.91
2023-04-16T18:46:23.820Z,95603.22
2023-04-16T18:48:50.535Z,95597.16
2023-04-16T18:51:17.163Z,95605.84
2023-04-16T18:53:45.440Z,95603.66
2023-04-16T18:56:12.409Z,95600.50
2023-04-16T18:58:38.983Z,95604.88
2023-04-16T19:01:10.811Z,95602.91
2023-04-16T19:03:38.048Z,95598.78
2023-04-16T19:06:05.016Z,95607.44
2023-04-16T19:08:31.639Z,95607.50
2023-04-16T19:10:58.271Z,95615.72
2023-04-16T19:13:24.862Z,95611.09
2023-04-16T19:15:51.415Z,95615.28
2023-04-16T19:18:18.006Z,95615.72
2023-04-16T19:20:44.674Z,95617.22
2023-04-16T19:23:11.778Z,95617.72
2023-04-16T19:25:39.547Z,95618.00
2023-04-16T19:28:06.093Z,95616.91
2023-04-16T19:30:32.697Z,95621.75
2023-04-16T19:32:59.305Z,95612.69
2023-04-16T19:35:25.981Z,95610.50
2023-04-16T19:37:52.796Z,95613.72
2023-04-16T19:40:19.453Z,95615.59
2023-04-16T19:42:45.967Z,95614.16
2023-04-16T19:45:12.542Z,95617.19
2023-04-16T19:47:39.170Z,95618.44
2023-04-16T19:50:06.590Z,95614.22
2023-04-16T19:52:38.758Z,95619.56
2023-04-16T19:55:06.771Z,95612.28
2023-04-16T19:57:33.477Z,95607.25
2023-04-16T20:00:00.398Z,95615.16
2023-04-16T20:02:27.616Z,95621.25
2023-04-16T20:04:54.307Z,95618.00
2023-04-16T20:07:20.911Z,95619.97
2023-04-16T20:09:47.422Z,95619.84
2023-04-16T20:12:14.471Z,95617.00
2023-04-16T20:14:41.904Z,95616.81
2023-04-16T20:17:10.160Z,95615.38
2023-04-16T20:19:40.124Z,95615.44
2023-04-16T20:22:06.641Z,95608.00
2023-04-16T20:24:33.258Z,95613.47
2023-04-16T20:26:59.783Z,95616.09
2023-04-16T20:29:26.285Z,95607.78
2023-04-16T20:31:52.957Z,95603.97
2023-04-16T20:34:19.612Z,95611.97
2023-04-16T20:36:46.206Z,95606.25
2023-04-16T20:39:12.925Z,95614.63
2023-04-16T20:41:44.032Z,95606.94
2023-04-16T20:44:18.144Z,95606.50
2023-04-16T20:46:49.413Z,95597.41
2023-04-16T20:49:17.699Z,95599.25
2023-04-16T20:51:44.342Z,95605.47
2023-04-16T20:54:11.100Z,95605.44
2023-04-16T20:56:37.637Z,95602.38
2023-04-16T20:59:04.167Z,95597.09
2023-04-16T21:01:30.844Z,95604.59
2023-04-16T21:03:57.715Z,95591.03
2023-04-16T21:06:25.375Z,95593.38
2023-04-16T21:08:52.039Z,95584.19
2023-04-16T21:11:18.658Z,95580.47
2023-04-16T21:13:45.212Z,95570.34
2023-04-16T21:16:12.481Z,95585.06
2023-04-16T21:18:39.260Z,95585.78
2023-04-16T21:21:06.106Z,95584.25
2023-04-16T21:23:32.703Z,95581.50
2023-04-16T21:25:59.227Z,95577.44
2023-04-16T21:28:25.930Z,95575.31
2023-04-16T21:30:53.245Z,95576.50
2023-04-16T21:33:19.800Z,95567.88
2023-04-16T21:35:51.624Z,95568.41
2023-04-16T21:38:18.613Z,95562.66
2023-04-16T21:40:50.928Z,95571.31
2023-04-16T21:43:17.943Z,95562.47
2023-04-16T21:45:44.516Z,95568.47
2023-04-16T21:48:11.326Z,95565.91
2023-04-16T21:50:38.336Z,95552.47
2023-04-16T21:53:06.713Z,95561.84
2023-04-16T21:55:34.816Z,95564.28
2023-04-16T21:58:02.082Z,95558.06
2023-04-16T22:00:28.777Z,95566.34
2023-04-16T22:02:56.504Z,95556.44
2023-04-16T22:05:25.805Z,95561.28
2023-04-16T22:07:52.859Z,95567.41
2023-04-16T22:10:19.616Z,95560.31
2023-04-16T22:12:46.605Z,95567.09
2023-04-16T22:15:13.863Z,95558.06
2023-04-16T22:17:41.157Z,95558.16
2023-04-16T22:20:09.391Z,95556.72
2023-04-16T22:22:36.148Z,95557.78
2023-04-16T22:25:03.459Z,95553.91
2023-04-16T22:27:30.100Z,95551.28
2023-04-16T22:29:56.793Z,95553.59
2023-04-16T22:32:23.509Z,95549.94
2023-04-16T22:34:50.127Z,95550.63
2023-04-16T22:37:16.620Z,95554.72
2023-04-16T22:39:43.202Z,95550.13
2023-04-16T22:42:09.749Z,95544.91
2023-04-16T22:44:36.960Z,95540.72
2023-04-16T22:47:03.596Z,95551.53
2023-04-16T22:49:33.221Z,95548.22
2023-04-16T22:52:02.867Z,95548.25
2023-04-16T22:54:33.255Z,95543.34
2023-04-16T22:56:59.950Z,95544.50
2023-04-16T22:59:26.558Z,95542.28
2023-04-16T23:01:53.308Z,95533.31
2023-04-16T23:04:20.832Z,95543.22
2023-04-16T23:06:47.377Z,95541.56
2023-04-16T23:09:14.217Z,95541.47
2023-04-16T23:11:41.041Z,95536.28
2023-04-16T23:14:08.388Z,95543.84
2023-04-16T23:16:35.064Z,95535.91
2023-04-16T23:19:01.680Z,95532.59
2023-04-16T23:21:28.224Z,95534.47
2023-04-16T23:23:55.688Z,95532.19
2023-04-16T23:26:22.176Z,95526.75
2023-04-16T23:28:48.766Z,95529.28
2023-04-16T23:31:15.490Z,95526.31
2023-04-16T23:33:42.064Z,95523.84
2023-04-16T23:36:09.099Z,95520.38
2023-04-16T23:38:35.571Z,95519.75
2023-04-16T23:41:02.120Z,95517.84
2023-04-16T23:43:28.666Z,95520.91
2023-04-16T23:45:55.864Z,95516.78
2023-04-16T23:48:22.449Z,95518.28
2023-04-16T23:50:48.986Z,95519.97
2023-04-16T23:53:15.729Z,95512.69
2023-04-16T23:55:42.273Z,95505.94
2023-04-16T23:58:08.780Z,95511.22
